createdAt,value
2019-03-23T14:33:40.203Z,58.20
2019-03-23T14:36:11.502Z,56.90
2019-03-23T14:38:45.552Z,56.30
2019-03-23T14:41:16.606Z,57.10
2019-03-23T14:43:47.653Z,56.80
2019-03-23T14:46:18.695Z,57.50
2019-03-23T14:48:53.507Z,57.10
2019-03-23T14:51:24.645Z,56.60
2019-03-23T14:53:55.969Z,56.60
2019-03-23T14:56:31.553Z,58.50
2019-03-23T14:58:59.636Z,56.90
2019-03-23T15:01:30.747Z,57.10
2019-03-23T15:04:02.132Z,57.60
2019-03-23T15:06:35.522Z,57.30
2019-03-23T15:09:08.060Z,57.40
2019-03-23T15:11:39.177Z,57.30
2019-03-23T15:14:10.382Z,57.00
2019-03-23T15:16:59.077Z,57.90
2019-03-23T15:19:31.856Z,57.80
2019-03-23T15:22:02.939Z,57.70
2019-03-23T15:24:33.971Z,58.20
2019-03-23T15:27:06.592Z,58.20
2019-03-23T15:29:37.729Z,57.30
2019-03-23T15:32:09.389Z,58.00
2019-03-23T15:34:45.413Z,58.00
2019-03-23T15:37:18.096Z,57.50
2019-03-23T15:39:50.378Z,57.50
2019-03-23T15:42:24.989Z,57.60
2019-03-23T15:44:55.385Z,59.00
2019-03-23T15:47:28.166Z,57.70
2019-03-23T15:50:02.026Z,58.10
2019-03-23T15:52:33.960Z,58.90
2019-03-23T15:55:05.285Z,57.50
2019-03-23T15:57:41.627Z,58.20
2019-03-23T16:00:55.627Z,57.60
2019-03-23T16:03:26.682Z,59.00
2019-03-23T16:05:57.812Z,57.30
2019-03-23T16:08:28.882Z,58.20
2019-03-23T16:11:02.653Z,59.00
2019-03-23T16:13:35.417Z,58.50
2019-03-23T16:18:55.800Z,58.40
2019-03-23T16:21:28.115Z,59.90
2019-03-23T16:23:59.266Z,59.20
2019-03-23T16:26:30.397Z,59.10
2019-03-23T16:29:01.572Z,59.10
2019-03-23T16:31:32.701Z,59.30
2019-03-23T16:34:03.718Z,60.10
2019-03-23T16:36:34.867Z,59.90
2019-03-23T16:39:06.903Z,62.00
2019-03-23T16:41:38.542Z,60.10
2019-03-23T16:44:09.651Z,61.50
2019-03-23T16:46:40.738Z,60.30
2019-03-23T16:49:12.938Z,62.90
2019-03-23T16:51:44.119Z,62.50
2019-03-23T16:54:16.528Z,63.10
2019-03-23T16:56:47.814Z,62.40
2019-03-23T16:59:19.658Z,62.00
2019-03-23T17:01:54.971Z,63.20
2019-03-23T17:04:28.189Z,60.70
2019-03-23T17:10:37.333Z,60.50
2019-03-23T17:13:08.466Z,61.70
2019-03-23T17:15:39.862Z,62.20
2019-03-23T17:18:11.298Z,61.80
2019-03-23T17:20:42.446Z,61.30
2019-03-23T17:26:41.147Z,64.30
2019-03-23T17:29:12.391Z,64.00
2019-03-23T17:31:49.468Z,64.60
2019-03-23T17:34:20.557Z,65.60
2019-03-23T17:36:51.827Z,67.00
2019-03-23T17:39:25.816Z,67.70
2019-03-23T17:41:56.931Z,68.20
2019-03-23T17:44:31.297Z,69.50
2019-03-23T17:47:02.622Z,70.70
2019-03-23T17:49:33.848Z,71.70
2019-03-23T18:05:00.641Z,79.40
2019-03-23T18:07:31.938Z,80.10
2019-03-23T18:10:03.142Z,79.10
2019-03-23T18:12:36.838Z,78.70
2019-03-23T18:15:08.754Z,80.60
2019-03-23T18:26:54.849Z,91.80
2019-03-23T18:29:26.041Z,93.40
2019-03-23T18:31:58.294Z,94.90
2019-03-23T18:34:30.611Z,95.90
2019-03-23T18:37:04.498Z,97.90
2019-03-23T18:39:41.677Z,97.20
2019-03-23T18:42:14.327Z,97.70
2019-03-23T18:44:45.549Z,98.20
2019-03-23T18:47:16.604Z,99.60
2019-03-23T18:49:47.892Z,99.10
2019-03-23T18:52:19.124Z,99.40
2019-03-23T18:54:52.712Z,99.90
2019-03-23T18:57:23.907Z,99.90
2019-03-23T19:00:11.331Z,99.90
2019-03-23T19:03:00.742Z,99.90
2019-03-23T19:05:21.223Z,99.90
2019-03-23T19:07:54.084Z,99.90
2019-03-23T19:10:29.942Z,99.90
2019-03-23T19:13:02.737Z,99.90
2019-03-23T19:15:33.824Z,99.90
2019-03-23T19:18:07.801Z,99.90
2019-03-23T19:20:39.016Z,99.90
2019-03-23T19:23:11.143Z,99.90
2019-03-23T19:25:48.276Z,99.90
2019-03-23T19:28:20.477Z,99.90
2019-03-23T19:30:52.040Z,99.90
2019-03-23T19:33:23.293Z,99.90
2019-03-23T19:35:54.474Z,99.90
2019-03-23T19:38:28.570Z,99.90
2019-03-23T19:41:02.978Z,99.90
2019-03-23T19:43:35.143Z,99.90
2019-03-23T19:46:08.163Z,99.90
2019-03-23T19:48:39.703Z,99.90
2019-03-23T19:51:13.926Z,99.90
2019-03-23T19:53:51.350Z,99.90
2019-03-23T19:56:25.523Z,99.90
2019-03-23T19:58:56.717Z,99.90
2019-03-23T20:01:32.158Z,99.90
2019-03-23T20:13:36.515Z,99.90
2019-03-23T20:16:07.847Z,99.90
2019-03-23T20:18:40.977Z,99.90
2019-03-23T20:21:12.148Z,99.90
2019-03-23T20:23:43.298Z,99.90
2019-03-23T20:26:14.715Z,99.90
2019-03-23T20:28:46.682Z,99.90
2019-03-23T20:31:17.967Z,99.90
2019-03-23T20:37:24.918Z,99.90
2019-03-23T20:39:56.053Z,99.90
2019-03-23T20:42:27.098Z,99.90
2019-03-23T20:44:58.105Z,99.90
2019-03-23T20:47:30.555Z,99.90
2019-03-23T20:50:01.866Z,99.90
2019-03-23T20:52:35.142Z,99.90
2019-03-23T20:55:07.900Z,99.90
2019-03-23T20:57:39.083Z,99.90
2019-03-23T21:03:37.243Z,99.90
2019-03-23T21:06:12.706Z,99.90
2019-03-23T21:08:44.015Z,99.90
2019-03-23T21:11:17.974Z,99.90
2019-03-23T21:13:49.189Z,99.90
2019-03-23T21:23:13.368Z,99.90
2019-03-23T21:25:44.362Z,99.90
2019-03-23T21:28:15.537Z,99.90
2019-03-23T21:30:46.570Z,99.90
2019-03-23T21:33:17.558Z,99.90
2019-03-23T21:35:48.600Z,99.90
2019-03-23T21:38:19.698Z,99.90
2019-03-23T21:40:51.733Z,99.90
2019-03-23T21:43:24.024Z,99.90
2019-03-23T21:45:56.779Z,99.90
2019-03-23T21:48:27.919Z,99.90
2019-03-23T21:50:58.890Z,99.90
2019-03-23T21:53:29.909Z,99.90
2019-03-23T21:59:29.159Z,99.90
2019-03-23T22:02:00.192Z,99.90
2019-03-23T22:04:31.260Z,99.90
2019-03-23T22:07:02.378Z,99.90
2019-03-23T22:09:33.486Z,99.90
2019-03-23T22:12:05.269Z,99.90
2019-03-23T22:14:41.688Z,99.90
2019-03-23T22:17:09.095Z,99.90
2019-03-23T22:19:40.215Z,99.90
2019-03-23T22:22:11.235Z,99.90
2019-03-23T22:24:42.363Z,99.90
2019-03-23T22:27:13.563Z,99.90
2019-03-23T22:29:44.742Z,99.90
2019-03-23T22:32:15.933Z,99.90
2019-03-23T22:34:49.204Z,99.90
2019-03-23T22:37:19.760Z,99.90
2019-03-23T22:39:55.279Z,99.90
2019-03-23T22:42:26.287Z,99.90
2019-03-23T22:44:57.278Z,99.90
2019-03-23T22:47:28.339Z,99.90
2019-03-23T22:53:11.401Z,99.90
2019-03-23T22:55:42.337Z,99.90
2019-03-23T22:58:13.368Z,99.90
2019-03-23T23:00:50.049Z,99.90
2019-03-23T23:03:21.197Z,99.90
2019-03-23T23:05:52.208Z,99.90
2019-03-23T23:08:23.257Z,99.90
2019-03-23T23:10:54.258Z,99.90
2019-03-23T23:13:25.303Z,99.90
2019-03-23T23:15:56.270Z,99.90
2019-03-23T23:18:27.182Z,99.90
2019-03-23T23:20:58.172Z,99.90
2019-03-23T23:23:29.249Z,99.90
2019-03-23T23:29:03.073Z,99.90
2019-03-23T23:31:34.086Z,99.90
2019-03-23T23:34:05.114Z,99.90
2019-03-23T23:36:36.160Z,99.90
2019-03-23T23:39:15.283Z,99.90
2019-03-23T23:41:47.235Z,99.90
2019-03-23T23:44:18.294Z,99.90
2019-03-23T23:46:49.326Z,99.90
2019-03-23T23:49:55.344Z,99.90
2019-03-23T23:52:29.687Z,99.90
2019-03-23T23:55:00.724Z,99.90
2019-03-23T23:57:31.633Z,99.90
